Time;durP1;ratioP1;P1;durP2;ratioP2;P2;SDS_P1;SDS_P2;PMS_P1;PMS_P2;Temp;Humidity;BMP_temperature;BMP_pressure;BME280_temperature;BME280_humidity;BME280_pressure;Samples;Min_cycle;Max_cycle;Signal;HPM_P1;HPM_P2
2021/10/11 00:01:53;;;;;;;26.05;19.70;;;;;;;9.27;100.00;93245.78;5091175;28;20717;-82
2021/10/11 00:04:19;;;;;;;30.95;21.02;;;;;;;9.31;100.00;93250.28;5091184;28;20055;-82
2021/10/11 00:07:06;;;;;;;30.13;23.58;;;;;;;9.27;100.00;93238.88;5091055;28;20044;-82
2021/10/11 00:09:34;;;;;;;30.30;26.10;;;;;;;9.48;100.00;93271.19;5090508;28;20056;-82
2021/10/11 00:12:02;;;;;;;28.88;23.02;;;;;;;9.07;100.00;93214.06;5091056;28;20048;-81
2021/10/11 00:14:29;;;;;;;25.88;20.08;;;;;;;9.16;100.00;93224.13;5090992;28;20522;-81
2021/10/11 00:16:56;;;;;;;26.95;20.63;;;;;;;8.94;100.00;93183.38;5091111;28;20047;-81
2021/10/11 00:19:23;;;;;;;24.60;18.35;;;;;;;9.27;100.00;93232.97;5091190;28;20055;-82
2021/10/11 00:21:50;;;;;;;23.25;17.25;;;;;;;9.48;100.00;93265.25;5091074;28;20437;-81
2021/10/11 00:24:16;;;;;;;21.75;16.85;;;;;;;9.29;100.00;93236.91;5088284;28;20421;-81
2021/10/11 00:26:43;;;;;;;21.73;16.95;;;;;;;9.41;100.00;93252.47;5091130;28;20059;-81
2021/10/11 00:29:11;;;;;;;19.73;15.43;;;;;;;9.42;100.00;93248.91;5090583;28;20708;-81
2021/10/11 00:31:38;;;;;;;21.42;16.27;;;;;;;9.39;100.00;93239.03;5090466;28;20052;-81
2021/10/11 00:34:05;;;;;;;23.42;15.60;;;;;;;9.43;100.00;93240.22;5101748;28;20120;-81
2021/10/11 00:36:32;;;;;;;25.40;16.45;;;;;;;9.54;100.00;93254.19;5104947;28;20495;-81
2021/10/11 00:38:59;;;;;;;22.10;15.55;;;;;;;9.34;100.00;93229.41;5089817;28;20055;-81
2021/10/11 00:41:28;;;;;;;21.50;15.82;;;;;;;9.56;100.00;93251.44;5091120;28;20039;-81
2021/10/11 00:43:55;;;;;;;24.98;16.98;;;;;;;9.57;100.00;93246.09;5090663;28;20056;-81
2021/10/11 00:46:23;;;;;;;23.20;16.02;;;;;;;9.55;100.00;93249.84;5090852;28;20402;-81
2021/10/11 00:48:50;;;;;;;24.13;16.65;;;;;;;9.43;100.00;93234.28;5091130;28;20055;-81
2021/10/11 00:51:17;;;;;;;23.30;16.52;;;;;;;9.35;100.00;93215.59;5090464;28;20058;-81
2021/10/11 00:53:44;;;;;;;22.08;15.55;;;;;;;9.49;100.00;93236.84;5090022;28;20126;-81
2021/10/11 00:56:11;;;;;;;23.05;16.83;;;;;;;9.45;100.00;93240.81;5090958;28;20414;-83
2021/10/11 00:58:38;;;;;;;24.77;17.05;;;;;;;9.36;100.00;93229.22;5090674;28;20047;-82
2021/10/11 01:01:05;;;;;;;22.80;15.98;;;;;;;9.36;100.00;93229.97;5090543;28;20525;-82
2021/10/11 01:03:33;;;;;;;22.80;17.25;;;;;;;9.36;100.00;93222.28;5090573;28;20173;-80
2021/10/11 01:06:00;;;;;;;24.58;17.08;;;;;;;9.44;100.00;93226.41;5090609;28;20044;-80
2021/10/11 01:08:27;;;;;;;24.80;17.40;;;;;;;9.51;100.00;93231.53;5090741;28;20044;-80
2021/10/11 01:10:54;;;;;;;27.25;17.83;;;;;;;9.52;100.00;93230.53;5090656;28;20047;-81
2021/10/11 01:13:20;;;;;;;26.40;16.77;;;;;;;9.55;100.00;93221.66;5090214;28;20470;-81
2021/10/11 01:15:47;;;;;;;26.27;17.30;;;;;;;9.57;100.00;93224.78;5090208;28;20419;-81
2021/10/11 01:18:14;;;;;;;23.52;17.00;;;;;;;9.42;100.00;93199.41;5090174;28;20090;-80
2021/10/11 01:20:42;;;;;;;28.30;19.27;;;;;;;9.41;100.00;93190.94;5090480;28;20048;-81
2021/10/11 01:23:09;;;;;;;30.35;20.00;;;;;;;9.45;100.00;93206.69;5090466;28;20048;-80
2021/10/11 01:25:36;;;;;;;25.60;17.25;;;;;;;9.56;100.00;93213.75;5090197;28;20075;-81
2021/10/11 01:28:04;;;;;;;26.67;17.88;;;;;;;9.51;100.00;93202.53;5090361;28;20085;-81
2021/10/11 01:30:31;;;;;;;26.95;18.08;;;;;;;9.46;100.00;93191.13;5089997;28;20056;-80
2021/10/11 01:32:58;;;;;;;25.23;18.60;;;;;;;9.39;100.00;93181.88;5089904;28;20551;-81
2021/10/11 01:35:25;;;;;;;25.98;18.52;;;;;;;9.42;100.00;93187.38;5090285;28;20093;-80
2021/10/11 01:37:53;;;;;;;25.00;18.40;;;;;;;9.49;100.00;93197.59;5089859;28;20545;-80
2021/10/11 01:40:20;;;;;;;26.40;18.85;;;;;;;9.56;100.00;93203.50;5089929;28;20055;-79
2021/10/11 01:42:47;;;;;;;26.98;18.63;;;;;;;9.56;100.00;93195.81;5090058;28;20075;-80
2021/10/11 01:45:14;;;;;;;26.48;17.40;;;;;;;9.52;100.00;93202.31;5089951;28;20052;-82
2021/10/11 01:47:41;;;;;;;24.83;17.67;;;;;;;9.51;100.00;93200.75;5089631;28;20525;-81
2021/10/11 01:50:08;;;;;;;25.83;18.23;;;;;;;9.38;100.00;93172.59;5089996;28;20051;-80
2021/10/11 01:52:39;;;;;;;25.90;18.77;;;;;;;9.50;100.00;93196.63;5089874;28;20726;-80
2021/10/11 01:55:09;;;;;;;25.48;19.45;;;;;;;9.53;100.00;93190.31;5089858;28;20153;-80
2021/10/11 01:57:36;;;;;;;27.08;19.30;;;;;;;9.34;100.00;93164.53;5089498;28;20055;-80
2021/10/11 02:00:05;;;;;;;29.85;20.80;;;;;;;9.53;100.00;93190.31;5089256;28;20051;-81
2021/10/11 02:02:32;;;;;;;27.73;20.02;;;;;;;9.53;100.00;93192.88;5089399;28;20047;-81
2021/10/11 02:04:59;;;;;;;32.33;23.65;;;;;;;9.44;100.00;93172.56;5089277;28;20039;-81
2021/10/11 02:07:26;;;;;;;34.85;23.95;;;;;;;9.57;100.00;93184.56;5089322;28;20521;-81
2021/10/11 02:09:53;;;;;;;34.75;23.83;;;;;;;9.52;100.00;93173.31;5089414;28;20040;-81
2021/10/11 02:12:21;;;;;;;31.67;23.67;;;;;;;9.54;100.00;93171.34;5089416;28;20457;-80
2021/10/11 02:14:48;;;;;;;33.78;22.80;;;;;;;9.60;100.00;93188.50;5089608;28;20066;-80
2021/10/11 02:17:15;;;;;;;35.45;24.23;;;;;;;9.57;100.00;93182.00;5089610;28;20412;-80
2021/10/11 02:19:42;;;;;;;33.72;21.00;;;;;;;9.47;100.00;93168.81;5089556;28;20127;-81
2021/10/11 02:22:09;;;;;;;34.22;22.05;;;;;;;9.66;100.00;93182.53;5089253;28;20055;-80
2021/10/11 02:24:36;;;;;;;31.85;21.60;;;;;;;9.65;100.00;93178.41;5089079;28;20051;-80
2021/10/11 02:27:03;;;;;;;30.70;20.25;;;;;;;9.66;100.00;93176.63;5089207;28;20048;-79
2021/10/11 02:29:32;;;;;;;28.88;18.55;;;;;;;9.67;100.00;93175.66;5089338;28;20052;-79
2021/10/11 02:31:59;;;;;;;28.98;17.98;;;;;;;9.53;100.00;93159.53;5089406;28;20064;-81
2021/10/11 02:34:25;;;;;;;24.52;16.58;;;;;;;9.68;100.00;93175.41;5089478;28;20055;-81
2021/10/11 02:36:52;;;;;;;22.75;16.20;;;;;;;9.69;100.00;93176.22;5064179;28;20453;-80
2021/10/11 02:39:19;;;;;;;24.08;15.68;;;;;;;9.68;100.00;93177.97;5048822;28;20545;-80
2021/10/11 02:41:46;;;;;;;22.15;15.43;;;;;;;9.69;100.00;93176.22;5049114;28;20056;-81
2021/10/11 02:44:13;;;;;;;21.13;13.95;;;;;;;9.68;100.00;93174.66;5049122;28;20080;-80
2021/10/11 02:46:41;;;;;;;21.60;14.27;;;;;;;9.66;100.00;93168.91;5049041;28;20049;-80
2021/10/11 02:49:08;;;;;;;19.95;14.48;;;;;;;9.68;100.00;93180.56;5049124;28;20052;-82
2021/10/11 02:51:35;;;;;;;23.23;16.17;;;;;;;9.63;100.00;93177.84;5048775;28;20049;-82
2021/10/11 02:54:02;;;;;;;21.63;15.00;;;;;;;9.44;100.00;93156.41;5048828;28;20507;-81
2021/10/11 02:56:28;;;;;;;25.35;16.20;;;;;;;9.46;100.00;93155.22;5048983;28;20045;-81
2021/10/11 02:58:55;;;;;;;23.63;15.18;;;;;;;9.57;100.00;93170.94;5048916;28;20056;-81
2021/10/11 03:01:22;;;;;;;25.58;16.67;;;;;;;9.56;100.00;93171.94;5048699;28;20499;-80
2021/10/11 03:03:50;;;;;;;29.95;19.88;;;;;;;9.26;100.00;93144.25;5049115;28;20052;-81
2021/10/11 03:06:17;;;;;;;34.75;22.17;;;;;;;9.42;100.00;93173.75;5048901;28;20041;-81
2021/10/11 03:08:44;;;;;;;34.58;23.45;;;;;;;9.19;100.00;93139.94;5049010;28;20044;-81
2021/10/11 03:11:11;;;;;;;23.67;16.98;;;;;;;9.27;100.00;93167.13;5048888;28;20057;-80
2021/10/11 03:13:37;;;;;;;22.27;15.38;;;;;;;9.27;100.00;93168.88;5048562;28;20049;-80
2021/10/11 03:16:04;;;;;;;20.63;15.77;;;;;;;9.13;100.00;93171.50;5049922;28;20099;-80
2021/10/11 03:18:31;;;;;;;21.13;15.30;;;;;;;9.04;100.00;93167.56;5052407;28;20424;-81
2021/10/11 03:21:00;;;;;;;23.25;16.13;;;;;;;8.98;100.00;93169.16;5052519;28;20049;-80
2021/10/11 03:23:26;;;;;;;22.67;16.85;;;;;;;8.99;100.00;93157.94;5052574;28;20049;-81
2021/10/11 03:25:53;;;;;;;26.55;18.85;;;;;;;9.01;100.00;93160.28;5052333;28;20091;-81
2021/10/11 03:28:20;;;;;;;25.10;16.92;;;;;;;9.02;100.00;93159.31;5052574;28;20049;-81
2021/10/11 03:30:47;;;;;;;23.00;14.75;;;;;;;8.92;100.00;93157.94;5052360;28;20503;-81
2021/10/11 03:33:15;;;;;;;23.50;15.77;;;;;;;8.60;100.00;93106.56;5052381;28;20095;-81
2021/10/11 03:35:41;;;;;;;20.38;14.98;;;;;;;8.75;100.00;93144.75;5052326;28;20072;-81
2021/10/11 03:38:10;;;;;;;23.45;15.50;;;;;;;8.55;100.00;93117.41;5052559;28;20068;-80
2021/10/11 03:40:37;;;;;;;22.80;16.45;;;;;;;8.42;100.00;93114.84;5052091;28;20049;-80
2021/10/11 03:43:04;;;;;;;26.75;17.42;;;;;;;8.59;100.00;93127.25;5052161;28;20076;-80
2021/10/11 03:45:30;;;;;;;25.90;17.60;;;;;;;8.63;100.00;93125.88;5051933;28;20045;-80
2021/10/11 03:47:57;;;;;;;24.85;17.85;;;;;;;8.61;100.00;93120.16;5051994;28;20045;-80
2021/10/11 03:50:24;;;;;;;28.20;19.33;;;;;;;8.44;100.00;93097.53;5051811;28;20484;-81
2021/10/11 03:52:51;;;;;;;27.05;18.42;;;;;;;8.65;100.00;93117.00;5052057;28;20045;-80
2021/10/11 03:55:19;;;;;;;27.00;18.38;;;;;;;8.72;100.00;93108.53;5051835;28;20060;-80
2021/10/11 03:57:46;;;;;;;30.83;21.17;;;;;;;8.80;100.00;93103.97;5051636;28;20052;-80
2021/10/11 04:00:13;;;;;;;29.83;21.17;;;;;;;8.81;100.00;93104.75;5051568;28;20052;-80
2021/10/11 04:02:40;;;;;;;29.88;20.60;;;;;;;8.83;100.00;93100.22;5051392;28;20057;-81
2021/10/11 04:05:08;;;;;;;27.73;19.17;;;;;;;8.86;100.00;93088.78;5051643;28;20045;-81
2021/10/11 04:07:36;;;;;;;27.50;19.80;;;;;;;8.99;100.00;93090.53;5051732;28;20124;-81
2021/10/11 04:10:05;;;;;;;27.75;19.48;;;;;;;9.14;100.00;93101.31;5051483;28;20412;-80
2021/10/11 04:12:37;;;;;;;26.90;18.27;;;;;;;9.19;100.00;93093.81;5051872;28;20135;-81
2021/10/11 04:15:07;;;;;;;24.83;17.67;;;;;;;9.17;100.00;93079.63;5051382;28;20507;-81
2021/10/11 04:17:37;;;;;;;30.45;20.60;;;;;;;9.09;100.00;93066.03;5051519;28;20045;-82
2021/10/11 04:20:06;;;;;;;29.30;20.85;;;;;;;9.14;100.00;93069.75;5051250;28;20535;-81
2021/10/11 04:22:32;;;;;;;26.13;19.08;;;;;;;9.28;100.00;93083.31;5051181;28;20049;-81
2021/10/11 04:24:59;;;;;;;27.27;19.45;;;;;;;9.32;100.00;93089.59;5051391;28;20056;-81
2021/10/11 04:27:26;;;;;;;28.10;19.02;;;;;;;9.34;100.00;93083.28;5050938;28;20427;-81
2021/10/11 04:29:54;;;;;;;25.38;18.33;;;;;;;9.24;100.00;93059.88;5051308;28;20106;-81
2021/10/11 04:32:21;;;;;;;26.30;19.35;;;;;;;9.44;100.00;93085.41;5051224;28;20052;-81
2021/10/11 04:34:48;;;;;;;30.38;19.38;;;;;;;9.48;100.00;93083.19;5051360;28;20045;-81
2021/10/11 04:37:14;;;;;;;30.80;19.88;;;;;;;9.48;100.00;93081.44;5051022;28;20503;-81
2021/10/11 04:39:41;;;;;;;29.02;19.73;;;;;;;9.51;100.00;93082.81;5051218;28;20052;-81
2021/10/11 04:42:08;;;;;;;31.63;21.80;;;;;;;9.53;100.00;93073.13;5051079;28;20475;-81
2021/10/11 04:44:35;;;;;;;33.67;21.42;;;;;;;9.45;100.00;93052.88;5050881;28;20059;-81
2021/10/11 04:47:03;;;;;;;32.88;21.25;;;;;;;9.58;100.00;93075.84;5051089;28;20040;-81
2021/10/11 04:49:30;;;;;;;31.08;20.90;;;;;;;9.40;100.00;93048.34;5050980;28;20045;-81
2021/10/11 04:51:57;;;;;;;29.73;20.23;;;;;;;9.42;100.00;93050.69;5050407;28;20060;-81
2021/10/11 04:54:24;;;;;;;32.55;20.33;;;;;;;9.41;100.00;93049.13;5050651;28;20049;-81
2021/10/11 04:56:50;;;;;;;33.10;21.48;;;;;;;9.55;100.00;93067.78;5050841;28;20052;-81
2021/10/11 04:59:17;;;;;;;31.33;22.38;;;;;;;9.36;100.00;93040.28;5050485;28;20076;-82
2021/10/11 05:01:44;;;;;;;33.45;22.55;;;;;;;9.45;100.00;93055.44;5050618;28;20056;-81
2021/10/11 05:04:12;;;;;;;30.10;21.73;;;;;;;9.53;100.00;93069.78;5050593;28;20063;-81
2021/10/11 05:06:39;;;;;;;34.25;22.67;;;;;;;9.60;100.00;93078.22;5050442;28;20041;-81
2021/10/11 05:09:06;;;;;;;27.80;19.98;;;;;;;9.42;100.00;93054.06;5050283;28;20059;-81
2021/10/11 05:11:33;;;;;;;27.27;18.90;;;;;;;9.61;100.00;93070.31;5050247;28;20557;-81
2021/10/11 05:13:59;;;;;;;25.10;18.30;;;;;;;9.65;100.00;93073.25;5050419;28;20455;-80
2021/10/11 05:16:27;;;;;;;30.30;19.52;;;;;;;9.64;100.00;93074.25;5050207;28;20044;-80
2021/10/11 05:18:54;;;;;;;30.60;19.83;;;;;;;9.68;100.00;93085.66;5050430;28;20056;-80
2021/10/11 05:21:22;;;;;;;26.80;17.60;;;;;;;9.46;100.00;93047.53;5050553;28;20075;-80
2021/10/11 05:23:49;;;;;;;25.35;18.35;;;;;;;9.61;100.00;93075.47;5037597;28;20049;-80
2021/10/11 05:26:16;;;;;;;23.13;15.85;;;;;;;9.63;100.00;93080.38;5049862;28;20429;-80
2021/10/11 05:28:42;;;;;;;19.40;14.18;;;;;;;9.70;100.00;93086.25;5050265;28;20454;-80
2021/10/11 05:31:09;;;;;;;20.42;14.38;;;;;;;9.45;100.00;93042.63;5050208;28;20067;-80
2021/10/11 05:33:36;;;;;;;16.50;12.35;;;;;;;9.75;100.00;93086.41;5049697;28;20557;-80
2021/10/11 05:36:04;;;;;;;15.20;10.95;;;;;;;9.60;100.00;93081.59;5049866;28;20053;-80
2021/10/11 05:38:33;;;;;;;16.88;12.90;;;;;;;9.39;100.00;93062.16;5049530;28;20049;-80
2021/10/11 05:41:00;;;;;;;19.15;13.85;;;;;;;9.52;100.00;93091.28;5049506;28;20099;-80
2021/10/11 05:43:27;;;;;;;17.42;12.90;;;;;;;9.52;100.00;93094.63;5050189;28;20438;-80
2021/10/11 05:45:54;;;;;;;17.85;13.00;;;;;;;9.51;100.00;93094.81;5049927;28;20045;-80
2021/10/11 05:48:21;;;;;;;17.70;12.20;;;;;;;9.36;100.00;93083.84;5049623;28;20340;-81
2021/10/11 05:50:48;;;;;;;21.23;13.48;;;;;;;9.18;100.00;93064.06;5049823;28;20060;-80
2021/10/11 05:53:15;;;;;;;18.38;13.20;;;;;;;9.19;100.00;93072.50;5049585;28;20057;-81
2021/10/11 05:55:43;;;;;;;20.90;17.23;;;;;;;9.06;100.00;93071.59;5049757;28;20048;-81
2021/10/11 05:58:10;;;;;;;26.40;19.92;;;;;;;9.01;100.00;93099.59;5049742;28;20052;-81
2021/10/11 06:00:37;;;;;;;30.52;21.75;;;;;;;8.90;100.00;93095.09;5049376;28;20055;-81
2021/10/11 06:03:03;;;;;;;31.70;23.15;;;;;;;9.00;100.00;93095.44;5049259;28;20488;-81
2021/10/11 06:05:30;;;;;;;27.35;19.88;;;;;;;8.84;100.00;93060.81;5049552;28;20060;-81
2021/10/11 06:07:57;;;;;;;22.23;17.42;;;;;;;8.98;100.00;93087.16;5049099;28;20052;-82
2021/10/11 06:10:24;;;;;;;23.83;17.55;;;;;;;8.98;100.00;93096.66;5049487;28;20048;-82
2021/10/11 06:12:52;;;;;;;22.13;16.40;;;;;;;8.85;100.00;93080.34;5049106;28;20530;-82
2021/10/11 06:15:19;;;;;;;23.08;17.30;;;;;;;8.73;100.00;93087.03;5049088;28;20100;-82
2021/10/11 06:17:47;;;;;;;22.30;15.90;;;;;;;8.84;100.00;93095.91;5049381;28;20060;-82
2021/10/11 06:20:13;;;;;;;23.60;17.38;;;;;;;8.74;100.00;93086.06;5049453;28;20053;-82
2021/10/11 06:22:40;;;;;;;26.38;17.52;;;;;;;8.73;100.00;93090.41;5049284;28;20451;-82
2021/10/11 06:25:08;;;;;;;25.50;17.60;;;;;;;8.85;100.00;93094.91;5049067;28;20483;-82
2021/10/11 06:27:37;;;;;;;21.35;16.80;;;;;;;8.92;100.00;93103.34;5048923;28;20053;-82
2021/10/11 06:30:07;;;;;;;24.40;17.40;;;;;;;9.07;100.00;93100.53;5024928;28;20096;-82
2021/10/11 06:32:34;;;;;;;31.33;21.42;;;;;;;9.28;100.00;93112.31;5027712;28;20057;-82
2021/10/11 06:35:01;;;;;;;86.90;52.40;;;;;;;9.43;100.00;93109.47;5029499;28;20049;-82
2021/10/11 06:37:28;;;;;;;82.55;47.38;;;;;;;9.54;100.00;93108.03;5028934;28;20052;-82
2021/10/11 06:39:54;;;;;;;72.25;42.85;;;;;;;9.58;100.00;93111.00;5029111;28;20048;-82
2021/10/11 06:42:21;;;;;;;73.43;45.92;;;;;;;9.77;100.00;93117.00;5028946;28;20045;-82
2021/10/11 06:44:48;;;;;;;43.10;26.95;;;;;;;9.82;100.00;93103.53;5029120;28;20058;-82
2021/10/11 06:47:17;;;;;;;37.92;24.75;;;;;;;9.78;100.00;93087.78;5029321;28;20507;-82
2021/10/11 06:49:46;;;;;;;26.65;19.30;;;;;;;9.94;100.00;93104.44;5028793;28;20048;-82
2021/10/11 06:52:13;;;;;;;23.75;15.52;;;;;;;9.96;100.00;93093.97;5031958;28;20053;-82
2021/10/11 06:54:40;;;;;;;26.52;16.55;;;;;;;10.10;100.00;93100.56;5032617;28;20080;-82
2021/10/11 06:57:08;;;;;;;24.35;15.40;;;;;;;10.13;100.00;93104.50;5033065;28;20049;-82
2021/10/11 06:59:35;;;;;;;17.67;12.85;;;;;;;10.05;100.00;93097.88;5033048;28;20055;-82
2021/10/11 07:02:01;;;;;;;18.80;13.57;;;;;;;9.98;100.00;93086.84;5032573;28;20061;-83
2021/10/11 07:04:30;;;;;;;20.10;14.43;;;;;;;9.92;100.00;93065.38;5033084;28;20147;-82
2021/10/11 07:06:57;;;;;;;19.63;13.38;;;;;;;9.93;100.00;93074.66;5032780;28;20128;-81
2021/10/11 07:09:24;;;;;;;19.75;13.18;;;;;;;10.05;100.00;93100.44;5032867;28;20336;-82
2021/10/11 07:11:51;;;;;;;22.08;15.10;;;;;;;10.09;100.00;93099.00;5032348;28;20050;-82
2021/10/11 07:14:18;;;;;;;21.00;13.02;;;;;;;10.11;100.00;93084.19;5032652;28;20099;-82
2021/10/11 07:16:45;;;;;;;18.77;13.82;;;;;;;9.95;100.00;93053.91;5032598;28;20470;-82
2021/10/11 07:19:12;;;;;;;18.42;13.18;;;;;;;10.29;100.00;93083.44;5032709;28;20049;-82
2021/10/11 07:21:41;;;;;;;18.35;13.55;;;;;;;10.35;100.00;93075.88;5032750;28;20100;-82
2021/10/11 07:24:11;;;;;;;17.95;13.55;;;;;;;10.50;100.00;93083.28;5032308;28;20516;-82
2021/10/11 07:26:38;;;;;;;22.95;14.45;;;;;;;10.19;100.00;93010.47;5032331;28;20087;-82
2021/10/11 07:29:05;;;;;;;23.73;16.15;;;;;;;10.50;100.00;93042.19;5031932;28;20065;-81
2021/10/11 07:31:32;;;;;;;31.63;20.50;;;;;;;10.90;100.00;93082.13;5032351;28;20053;-81
2021/10/11 07:33:59;;;;;;;22.45;14.65;;;;;;;10.94;100.00;93075.56;5032157;28;20089;-81
2021/10/11 07:36:26;;;;;;;19.73;13.55;;;;;;;10.86;100.00;93057.84;5032096;28;20049;-81
2021/10/11 07:38:55;;;;;;;18.10;12.07;;;;;;;11.17;100.00;93087.75;5032194;28;20146;-81
2021/10/11 07:41:21;;;;;;;18.65;11.98;;;;;;;11.07;100.00;93048.91;5031936;28;20053;-81
2021/10/11 07:43:48;;;;;;;24.92;17.50;;;;;;;11.29;100.00;93074.16;5031931;28;20049;-81
2021/10/11 07:46:15;;;;;;;58.80;36.60;;;;;;;11.30;100.00;93075.72;5031839;28;20390;-81
2021/10/11 07:48:42;;;;;;;25.90;17.80;;;;;;;11.46;100.00;93087.19;5031880;28;20455;-81
2021/10/11 07:51:09;;;;;;;19.80;13.15;;;;;;;11.41;100.00;93077.56;5032100;28;20409;-82
2021/10/11 07:53:36;;;;;;;28.13;21.02;;;;;;;11.61;100.00;93089.38;5031776;28;20053;-81
2021/10/11 07:56:05;;;;;;;16.95;13.00;;;;;;;11.74;100.00;93091.78;5031822;28;20416;-81
2021/10/11 07:58:32;;;;;;;16.08;11.15;;;;;;;11.60;100.00;93067.22;5031583;28;20045;-81
2021/10/11 08:00:59;;;;;;;15.85;9.88;;;;;;;11.95;100.00;93092.25;5031489;28;20051;-81
2021/10/11 08:03:28;;;;;;;16.65;10.27;;;;;;;11.99;100.00;93095.19;5031099;28;20091;-81
2021/10/11 08:05:55;;;;;;;17.17;10.55;;;;;;;11.94;100.00;93069.34;5031410;28;20523;-81
2021/10/11 08:08:22;;;;;;;19.02;12.77;;;;;;;12.02;100.00;93064.66;5031507;28;20052;-81
2021/10/11 08:10:48;;;;;;;18.27;12.63;;;;;;;12.16;100.00;93074.75;5031582;28;20505;-81
2021/10/11 08:13:17;;;;;;;14.25;9.85;;;;;;;12.34;100.00;93083.38;5031731;28;20057;-81
2021/10/11 08:15:43;;;;;;;9.82;6.70;;;;;;;12.32;100.00;93088.00;5031213;28;20049;-81
2021/10/11 08:18:11;;;;;;;8.00;5.40;;;;;;;12.27;100.00;93070.63;5031607;28;20428;-81
2021/10/11 08:20:38;;;;;;;7.60;5.43;;;;;;;11.87;100.00;93061.69;5031467;28;20049;-81
2021/10/11 08:23:05;;;;;;;5.82;4.70;;;;;;;11.43;100.00;93092.78;5031171;28;20436;-81
2021/10/11 08:25:32;;;;;;;10.75;6.18;;;;;;;11.16;100.00;93091.31;5031232;28;20061;-81
2021/10/11 08:27:59;;;;;;;10.23;6.07;;;;;;;11.43;100.00;93093.56;5030820;28;20045;-81
2021/10/11 08:30:27;;;;;;;8.52;5.80;;;;;;;11.54;100.00;93097.19;5031359;28;20049;-81
2021/10/11 08:32:54;;;;;;;9.30;6.45;;;;;;;11.31;100.00;93065.25;5031096;28;20057;-81
2021/10/11 08:35:21;;;;;;;10.18;7.30;;;;;;;11.34;100.00;93093.06;5031031;28;20049;-81
2021/10/11 08:37:47;;;;;;;11.68;8.77;;;;;;;10.76;100.00;93068.63;5031070;28;20046;-81
2021/10/11 08:40:14;;;;;;;12.65;9.15;;;;;;;11.16;100.00;93091.31;5031262;28;20099;-80
2021/10/11 08:42:41;;;;;;;21.00;12.02;;;;;;;11.11;100.00;93080.88;5031292;28;20060;-81
2021/10/11 08:45:09;;;;;;;18.83;10.90;;;;;;;11.23;100.00;93101.53;5031158;28;20045;-81
2021/10/11 08:47:38;;;;;;;13.13;9.10;;;;;;;11.34;100.00;93084.59;5031051;28;20049;-81
2021/10/11 08:50:07;;;;;;;16.77;10.48;;;;;;;11.61;100.00;93092.75;5030926;28;20056;-81
2021/10/11 08:52:33;;;;;;;11.77;8.15;;;;;;;11.63;100.00;93088.16;5030755;28;20056;-81
2021/10/11 08:55:00;;;;;;;14.50;8.50;;;;;;;11.67;100.00;93096.22;5030702;28;20072;-81
2021/10/11 08:57:29;;;;;;;10.23;7.38;;;;;;;11.52;100.00;93095.84;5030693;28;20057;-80
2021/10/11 09:00:10;;;;;;;11.70;8.45;;;;;;;11.52;100.00;93081.19;5030591;28;20057;-81
2021/10/11 09:02:50;;;;;;;9.57;7.63;;;;;;;11.57;100.00;93077.97;5030270;28;20064;-81
2021/10/11 09:05:22;;;;;;;12.85;9.70;;;;;;;11.69;100.00;93081.34;5030277;28;20053;-81
2021/10/11 09:07:58;;;;;;;9.32;8.25;;;;;;;11.90;100.00;93098.06;5030806;28;20146;-81
2021/10/11 09:10:25;;;;;;;11.90;7.88;;;;;;;11.91;100.00;93096.31;5031417;28;20041;-82
2021/10/11 09:12:52;;;;;;;11.43;8.23;;;;;;;11.46;100.00;93097.47;5030874;28;20051;-82
2021/10/11 09:15:19;;;;;;;12.20;8.50;;;;;;;10.92;100.00;93006.38;5029484;28;20053;-82
2021/10/11 09:17:50;;;;;;;9.88;7.35;;;;;;;11.58;100.00;93093.16;5030702;28;20061;-81
2021/10/11 09:20:20;;;;;;;9.30;6.00;;;;;;;11.71;100.00;93089.63;5030412;28;20045;-81
2021/10/11 09:22:50;;;;;;;11.82;8.27;;;;;;;11.38;100.00;93083.13;5030131;28;20060;-81
2021/10/11 09:25:18;;;;;;;14.23;8.40;;;;;;;11.55;100.00;93085.91;5030424;28;20049;-82
2021/10/11 09:27:49;;;;;;;10.07;6.32;;;;;;;11.68;100.00;93084.13;5029912;28;20501;-81
2021/10/11 09:30:17;;;;;;;11.63;7.00;;;;;;;11.59;100.00;93050.22;5029922;28;20050;-81
2021/10/11 09:32:44;;;;;;;7.00;5.35;;;;;;;11.90;100.00;93087.78;5030468;28;20053;-81
2021/10/11 09:35:16;;;;;;;7.80;5.90;;;;;;;11.99;100.00;93085.66;5030049;28;20049;-81
2021/10/11 09:37:49;;;;;;;9.32;6.38;;;;;;;11.71;100.00;93063.13;5030017;28;20049;-81
2021/10/11 09:40:16;;;;;;;7.40;5.57;;;;;;;11.40;100.00;93057.22;5029994;28;20049;-81
2021/10/11 09:42:43;;;;;;;10.82;7.60;;;;;;;11.40;100.00;93055.44;5030129;28;20053;-81
2021/10/11 09:45:10;;;;;;;8.80;6.60;;;;;;;11.68;100.00;93086.72;5029799;28;20049;-81
2021/10/11 09:47:38;;;;;;;5.40;4.53;;;;;;;11.30;100.00;93065.44;5030006;28;20064;-81
2021/10/11 09:50:07;;;;;;;5.32;4.47;;;;;;;11.47;100.00;93088.75;5029976;28;20428;-81
2021/10/11 09:52:36;;;;;;;6.43;5.07;;;;;;;11.43;100.00;93074.78;5029891;28;20068;-80
2021/10/11 09:55:06;;;;;;;6.00;5.25;;;;;;;11.26;100.00;93054.03;5030101;28;20488;-80
2021/10/11 09:57:33;;;;;;;83.80;34.20;;;;;;;11.35;100.00;93068.16;5029621;28;20133;-81
2021/10/11 10:00:02;;;;;;;13.40;9.77;;;;;;;11.55;100.00;93078.19;5029411;28;20060;-80
2021/10/11 10:02:31;;;;;;;16.13;10.02;;;;;;;11.79;100.00;93080.03;5029882;28;20404;-80
2021/10/11 10:05:02;;;;;;;6.30;4.72;;;;;;;11.68;100.00;93048.13;5029553;28;20076;-81
2021/10/11 10:07:34;;;;;;;5.95;4.50;;;;;;;11.90;100.00;93071.56;5029471;28;20115;-81
2021/10/11 10:10:05;;;;;;;5.15;3.75;;;;;;;11.56;100.00;93012.06;5029807;28;20061;-80
2021/10/11 10:12:32;;;;;;;5.60;4.60;;;;;;;11.97;100.00;93051.66;5029355;28;20049;-80
2021/10/11 10:15:00;;;;;;;6.95;4.78;;;;;;;12.37;100.00;93063.13;5029507;28;20046;-80
2021/10/11 10:17:32;;;;;;;4.72;3.88;;;;;;;12.54;100.00;93065.81;5029467;28;20052;-80
2021/10/11 10:20:11;;;;;;;5.97;4.45;;;;;;;12.60;100.00;93050.47;5029584;28;20072;-80
2021/10/11 10:22:51;;;;;;;6.35;5.15;;;;;;;12.76;100.00;93047.19;5029138;28;20089;-80
2021/10/11 10:25:21;;;;;;;5.68;4.40;;;;;;;12.66;100.00;93063.22;5029147;28;20080;-80
2021/10/11 10:27:50;;;;;;;7.78;5.40;;;;;;;12.75;100.00;93045.63;5029209;28;20137;-80
2021/10/11 10:30:19;;;;;;;6.18;4.90;;;;;;;12.77;100.00;93056.50;5029248;28;20480;-80
2021/10/11 10:32:57;;;;;;;7.65;5.75;;;;;;;12.63;100.00;93048.22;5029416;28;20083;-80
2021/10/11 10:35:25;;;;;;;7.70;5.90;;;;;;;12.46;100.00;93042.97;5029054;28;20053;-80
2021/10/11 10:37:52;;;;;;;6.30;4.80;;;;;;;12.47;100.00;93036.00;5029075;28;20053;-80
2021/10/11 10:40:22;;;;;;;6.97;5.95;;;;;;;12.41;100.00;93038.47;5029040;28;20049;-81
2021/10/11 10:42:49;;;;;;;7.22;6.38;;;;;;;12.41;100.00;93010.16;5029262;28;20062;-81
2021/10/11 10:45:20;;;;;;;6.70;5.28;;;;;;;12.51;100.00;93017.28;5028955;28;20058;-80
2021/10/11 10:47:49;;;;;;;6.85;5.32;;;;;;;12.70;100.00;93030.06;5032141;28;20053;-80
2021/10/11 10:50:17;;;;;;;4.93;4.25;;;;;;;12.57;100.00;93005.31;5039496;28;20053;-80
2021/10/11 10:52:47;;;;;;;6.18;4.78;;;;;;;12.41;100.00;92968.16;5037630;28;20037;-80
2021/10/11 10:55:15;;;;;;;5.72;4.40;;;;;;;12.55;100.00;93021.00;5038835;28;20056;-80
2021/10/11 10:57:44;;;;;;;5.50;4.47;;;;;;;12.66;100.00;93029.72;5035780;28;20048;-80
2021/10/11 11:00:16;;;;;;;7.13;4.47;;;;;;;12.50;100.00;92979.66;5039423;28;20432;-80
2021/10/11 11:02:48;;;;;;;8.20;5.38;;;;;;;12.81;100.00;93000.09;5033169;28;20046;-80
2021/10/11 11:05:15;;;;;;;6.95;5.80;;;;;;;13.22;100.00;93033.63;5036147;28;20570;-80
2021/10/11 11:07:44;;;;;;;5.45;4.68;;;;;;;13.22;100.00;93010.41;5038099;28;20072;-81
2021/10/11 11:10:13;;;;;;;4.97;4.13;;;;;;;13.07;100.00;93031.53;5035455;28;20045;-80
2021/10/11 11:12:44;;;;;;;7.90;5.00;;;;;;;13.14;100.00;93006.38;5014164;28;20041;-80
2021/10/11 11:15:23;;;;;;;7.45;5.95;;;;;;;13.38;100.00;93016.59;5035158;28;20053;-80
2021/10/11 11:17:50;;;;;;;7.28;5.00;;;;;;;13.27;100.00;93013.06;5037589;28;20084;-80
2021/10/11 11:20:20;;;;;;;5.85;5.13;;;;;;;13.26;100.00;93015.88;5048767;28;20045;-80